Time;durP1;ratioP1;P1;durP2;ratioP2;P2;SDS_P1;SDS_P2;PMS_P1;PMS_P2;Temp;Humidity;BMP_temperature;BMP_pressure;BME280_temperature;BME280_humidity;BME280_pressure;Samples;Min_cycle;Max_cycle;Signal;HPM_P1;HPM_P2
2021/10/10 00:01:48;;;;;;;;;;;6.40;83.40;;;;;;5000401;28;19975;-68
2021/10/10 00:04:13;;;;;;;;;;;6.40;83.40;;;;;;5015215;28;19905;-65
2021/10/10 00:06:39;;;;;;;;;;;6.30;83.40;;;;;;5001360;28;20622;-66
2021/10/10 00:09:04;;;;;;;;;;;6.30;83.30;;;;;;5003779;28;19920;-66
2021/10/10 00:11:30;;;;;;;;;;;6.30;83.20;;;;;;5005700;28;19909;-66
2021/10/10 00:13:55;;;;;;;;;;;6.20;83.80;;;;;;4995408;28;19909;-66
2021/10/10 00:16:21;;;;;;;;;;;6.30;83.50;;;;;;5004552;28;20346;-66
2021/10/10 00:18:47;;;;;;;;;;;6.20;83.70;;;;;;5004166;28;19910;-66
2021/10/10 00:21:13;;;;;;;;;;;6.10;83.80;;;;;;5008610;28;19910;-66
2021/10/10 00:23:38;;;;;;;;;;;6.10;83.90;;;;;;4994464;28;20464;-66
2021/10/10 00:26:04;;;;;;;;;;;6.10;84.30;;;;;;5002746;28;19920;-67
2021/10/10 00:28:29;;;;;;;;;;;6.10;84.30;;;;;;4996105;28;19910;-66
2021/10/10 00:30:57;;;;;;;;;;;6.00;84.50;;;;;;5001168;28;20291;-66
2021/10/10 00:33:23;;;;;;;;;;;6.00;84.60;;;;;;4992296;28;20016;-66
2021/10/10 00:35:48;;;;;;;;;;;6.00;84.60;;;;;;5001282;28;20008;-66
2021/10/10 00:38:14;;;;;;;;;;;6.00;84.80;;;;;;5008822;28;20598;-66
2021/10/10 00:40:39;;;;;;;;;;;5.90;84.20;;;;;;5007196;28;19963;-68
2021/10/10 00:43:05;;;;;;;;;;;6.00;84.20;;;;;;4998908;28;19917;-68
2021/10/10 00:45:30;;;;;;;;;;;6.00;84.70;;;;;;5006113;28;19909;-69
2021/10/10 00:47:56;;;;;;;;;;;5.90;84.30;;;;;;5003001;28;20016;-68
2021/10/10 00:50:21;;;;;;;;;;;5.90;84.60;;;;;;5002165;28;20024;-69
2021/10/10 00:52:47;;;;;;;;;;;6.00;83.30;;;;;;5002782;28;19953;-69
2021/10/10 00:55:13;;;;;;;;;;;6.00;83.40;;;;;;5004731;28;20361;-68
2021/10/10 00:57:41;;;;;;;;;;;5.90;83.60;;;;;;5005241;28;19929;-68
2021/10/10 01:00:08;;;;;;;;;;;5.90;84.50;;;;;;4995696;28;20376;-69
2021/10/10 01:02:35;;;;;;;;;;;5.90;83.60;;;;;;5002026;28;20269;-69
2021/10/10 01:05:00;;;;;;;;;;;5.90;83.90;;;;;;4998591;28;19965;-68
2021/10/10 01:07:26;;;;;;;;;;;5.70;84.30;;;;;;5002870;28;19913;-70
2021/10/10 01:09:52;;;;;;;;;;;5.70;84.30;;;;;;4998906;28;20008;-68
2021/10/10 01:12:19;;;;;;;;;;;5.60;84.40;;;;;;5006832;28;19972;-69
2021/10/10 01:14:44;;;;;;;;;;;5.60;84.80;;;;;;5000742;28;19910;-68
2021/10/10 01:17:10;;;;;;;;;;;5.60;84.10;;;;;;5000916;28;20341;-69
2021/10/10 01:19:36;;;;;;;;;;;5.50;84.50;;;;;;5002322;28;20254;-69
2021/10/10 01:22:02;;;;;;;;;;;5.60;84.60;;;;;;4996411;28;20258;-69
2021/10/10 01:24:28;;;;;;;;;;;5.40;84.80;;;;;;5005651;28;20003;-68
2021/10/10 01:26:53;;;;;;;;;;;5.30;84.90;;;;;;5002600;28;20436;-69
2021/10/10 01:29:19;;;;;;;;;;;5.20;85.90;;;;;;5010686;28;19916;-68
2021/10/10 01:31:45;;;;;;;;;;;5.20;85.70;;;;;;5003945;28;19917;-70
2021/10/10 01:34:10;;;;;;;;;;;5.10;85.60;;;;;;4998131;28;20408;-69
2021/10/10 01:36:36;;;;;;;;;;;5.00;85.70;;;;;;4991308;28;20170;-70
2021/10/10 01:39:02;;;;;;;;;;;4.90;86.20;;;;;;5001939;28;19960;-69
2021/10/10 01:41:27;;;;;;;;;;;5.00;86.70;;;;;;4997116;28;19943;-68
2021/10/10 01:43:53;;;;;;;;;;;4.80;86.40;;;;;;5002758;28;19925;-69
2021/10/10 01:46:19;;;;;;;;;;;4.80;86.60;;;;;;5005993;28;20008;-69
2021/10/10 01:48:44;;;;;;;;;;;4.80;87.00;;;;;;5003778;28;19909;-69
2021/10/10 01:51:12;;;;;;;;;;;4.80;87.00;;;;;;4997814;28;19917;-69
2021/10/10 01:53:38;;;;;;;;;;;4.70;87.10;;;;;;4997278;28;20180;-70
2021/10/10 01:56:03;;;;;;;;;;;4.70;87.00;;;;;;5004809;28;20180;-69
2021/10/10 01:58:29;;;;;;;;;;;4.80;87.20;;;;;;4998992;28;19910;-70
2021/10/10 02:00:54;;;;;;;;;;;4.70;87.30;;;;;;5004514;28;20273;-68
2021/10/10 02:03:20;;;;;;;;;;;4.70;87.50;;;;;;5004279;28;20369;-70
2021/10/10 02:05:46;;;;;;;;;;;4.60;87.70;;;;;;5008734;28;20004;-72
2021/10/10 02:08:11;;;;;;;;;;;4.60;87.90;;;;;;5004687;28;19910;-70
2021/10/10 02:10:37;;;;;;;;;;;4.60;88.20;;;;;;5000634;28;20492;-68
2021/10/10 02:13:02;;;;;;;;;;;4.50;88.20;;;;;;4994068;28;20308;-69
2021/10/10 02:15:28;;;;;;;;;;;4.40;88.40;;;;;;5003237;28;19914;-70
2021/10/10 02:17:53;;;;;;;;;;;4.30;88.80;;;;;;5007531;28;20335;-68
2021/10/10 02:20:19;;;;;;;;;;;4.20;88.70;;;;;;5006682;28;20000;-68
2021/10/10 02:22:44;;;;;;;;;;;4.10;89.00;;;;;;5001770;28;19917;-71
2021/10/10 02:25:10;;;;;;;;;;;4.10;89.10;;;;;;4993671;28;20072;-69
2021/10/10 02:27:35;;;;;;;;;;;4.10;89.70;;;;;;5005055;28;20379;-70
2021/10/10 02:30:01;;;;;;;;;;;4.10;89.90;;;;;;5008247;28;19920;-68
2021/10/10 02:32:26;;;;;;;;;;;3.90;90.00;;;;;;5007110;28;20341;-69
2021/10/10 02:34:52;;;;;;;;;;;4.00;90.60;;;;;;5007817;28;19963;-69
2021/10/10 02:37:17;;;;;;;;;;;3.90;90.50;;;;;;5009380;28;19913;-69
2021/10/10 02:39:42;;;;;;;;;;;3.80;90.50;;;;;;5021327;28;19912;-70
2021/10/10 02:42:08;;;;;;;;;;;3.80;90.60;;;;;;5006015;28;19964;-69
2021/10/10 02:44:33;;;;;;;;;;;3.70;90.50;;;;;;5003145;28;19910;-70
2021/10/10 02:46:59;;;;;;;;;;;3.60;90.40;;;;;;4996678;28;19913;-70
2021/10/10 02:49:24;;;;;;;;;;;3.60;90.50;;;;;;5005120;28;19937;-69
2021/10/10 02:51:50;;;;;;;;;;;3.40;90.40;;;;;;5006044;28;20256;-69
2021/10/10 02:54:15;;;;;;;;;;;3.40;90.70;;;;;;5009416;28;19909;-71
2021/10/10 02:56:41;;;;;;;;;;;3.30;90.90;;;;;;5007924;28;20427;-69
2021/10/10 02:59:06;;;;;;;;;;;3.20;91.40;;;;;;5005631;28;19917;-69
2021/10/10 03:01:32;;;;;;;;;;;3.20;91.40;;;;;;4997153;28;20027;-69
2021/10/10 03:03:57;;;;;;;;;;;3.10;91.00;;;;;;5006108;28;19917;-68
2021/10/10 03:06:23;;;;;;;;;;;3.10;91.10;;;;;;5005240;28;19916;-68
2021/10/10 03:08:48;;;;;;;;;;;3.00;91.20;;;;;;5005724;28;19916;-68
2021/10/10 03:11:14;;;;;;;;;;;3.10;91.70;;;;;;4996605;28;20292;-70
2021/10/10 03:13:39;;;;;;;;;;;3.10;92.00;;;;;;5009783;28;19909;-68
2021/10/10 03:16:05;;;;;;;;;;;3.10;92.00;;;;;;5003704;28;19910;-69
2021/10/10 03:18:30;;;;;;;;;;;3.10;92.00;;;;;;4992419;28;19917;-69
2021/10/10 03:20:56;;;;;;;;;;;3.10;92.20;;;;;;5003555;28;19913;-67
2021/10/10 03:23:21;;;;;;;;;;;3.10;92.30;;;;;;5006183;28;19909;-68
2021/10/10 03:25:47;;;;;;;;;;;3.10;92.50;;;;;;5005427;28;20351;-69
2021/10/10 03:28:12;;;;;;;;;;;3.10;92.60;;;;;;5008260;28;19998;-69
2021/10/10 03:30:38;;;;;;;;;;;3.00;92.70;;;;;;5007062;28;19917;-68
2021/10/10 03:33:03;;;;;;;;;;;3.00;92.80;;;;;;5003191;28;19916;-69
2021/10/10 03:35:29;;;;;;;;;;;2.90;92.60;;;;;;4996636;28;20104;-68
2021/10/10 03:37:55;;;;;;;;;;;2.90;92.50;;;;;;5003622;28;19924;-69
2021/10/10 03:40:20;;;;;;;;;;;2.90;92.50;;;;;;5010954;28;20391;-69
2021/10/10 03:42:46;;;;;;;;;;;2.80;92.60;;;;;;5005358;28;19909;-68
2021/10/10 03:45:11;;;;;;;;;;;2.80;92.80;;;;;;5002252;28;19914;-69
2021/10/10 03:47:37;;;;;;;;;;;2.80;92.80;;;;;;5002142;28;19916;-69
2021/10/10 03:50:04;;;;;;;;;;;2.90;93.00;;;;;;5003091;28;20250;-68
2021/10/10 03:52:29;;;;;;;;;;;3.00;93.40;;;;;;4997724;28;20364;-69
2021/10/10 03:55:26;;;;;;;;;;;3.10;93.40;;;;;;5005866;28;20002;-69
2021/10/10 03:57:52;;;;;;;;;;;3.10;93.30;;;;;;5001536;28;19917;-68
2021/10/10 04:00:17;;;;;;;;;;;3.10;92.70;;;;;;5007450;28;20313;-70
2021/10/10 04:02:43;;;;;;;;;;;3.00;92.50;;;;;;5006437;28;19936;-69
2021/10/10 04:05:19;;;;;;;;;;;2.90;92.60;;;;;;5005127;28;19913;-68
2021/10/10 04:07:45;;;;;;;;;;;2.80;92.50;;;;;;4999800;28;19925;-71
2021/10/10 04:10:11;;;;;;;;;;;2.70;92.40;;;;;;5006221;28;19948;-68
2021/10/10 04:12:36;;;;;;;;;;;2.60;92.50;;;;;;5004469;28;20100;-69
2021/10/10 04:15:02;;;;;;;;;;;2.60;92.60;;;;;;5004724;28;20322;-71
2021/10/10 04:17:28;;;;;;;;;;;2.60;93.00;;;;;;5002487;28;20536;-69
2021/10/10 04:19:53;;;;;;;;;;;2.60;93.20;;;;;;5013157;28;19909;-65
2021/10/10 04:22:19;;;;;;;;;;;2.60;93.20;;;;;;5000799;28;19909;-65
2021/10/10 04:24:44;;;;;;;;;;;2.70;93.40;;;;;;4990457;28;19997;-65
2021/10/10 04:27:10;;;;;;;;;;;2.90;93.60;;;;;;4994923;28;19996;-65
2021/10/10 04:29:35;;;;;;;;;;;2.90;93.30;;;;;;5005482;28;20157;-65
2021/10/10 04:32:01;;;;;;;;;;;3.00;93.20;;;;;;5005273;28;19924;-65
2021/10/10 04:34:27;;;;;;;;;;;3.00;93.10;;;;;;5005584;28;20760;-65
2021/10/10 04:36:53;;;;;;;;;;;3.10;92.90;;;;;;5004201;28;19952;-65
2021/10/10 04:39:18;;;;;;;;;;;3.20;92.70;;;;;;5003155;28;19913;-65
2021/10/10 04:41:44;;;;;;;;;;;3.20;92.40;;;;;;5002051;28;19909;-65
2021/10/10 04:44:09;;;;;;;;;;;3.10;92.10;;;;;;5003190;28;20171;-65
2021/10/10 04:46:35;;;;;;;;;;;3.20;92.20;;;;;;5003358;28;19909;-65
2021/10/10 04:49:00;;;;;;;;;;;3.10;92.00;;;;;;5007689;28;20405;-65
2021/10/10 04:51:26;;;;;;;;;;;3.30;92.30;;;;;;5005490;28;19979;-65
2021/10/10 04:53:51;;;;;;;;;;;3.30;92.00;;;;;;4998006;28;19965;-65
2021/10/10 04:56:17;;;;;;;;;;;3.40;92.00;;;;;;5001034;28;19909;-65
2021/10/10 04:58:42;;;;;;;;;;;3.40;91.60;;;;;;5000436;28;19917;-65
2021/10/10 05:01:07;;;;;;;;;;;3.40;91.40;;;;;;4997356;28;20364;-65
2021/10/10 05:03:33;;;;;;;;;;;3.40;91.30;;;;;;5002954;28;19909;-65
2021/10/10 05:05:59;;;;;;;;;;;3.40;91.10;;;;;;5005234;28;19971;-65
2021/10/10 05:08:24;;;;;;;;;;;3.50;91.20;;;;;;5003940;28;19939;-65
2021/10/10 05:10:50;;;;;;;;;;;3.50;90.60;;;;;;5005705;28;20055;-65
2021/10/10 05:13:15;;;;;;;;;;;3.40;90.60;;;;;;5001705;28;19910;-65
2021/10/10 05:15:41;;;;;;;;;;;3.40;90.90;;;;;;4999828;28;19909;-65
2021/10/10 05:18:06;;;;;;;;;;;3.40;91.00;;;;;;4999960;28;19960;-65
2021/10/10 05:20:32;;;;;;;;;;;3.40;91.00;;;;;;4997323;28;19909;-65
2021/10/10 05:22:57;;;;;;;;;;;3.40;91.00;;;;;;5002655;28;19918;-65
2021/10/10 05:25:23;;;;;;;;;;;3.40;90.80;;;;;;5004430;28;19956;-65
2021/10/10 05:27:48;;;;;;;;;;;3.50;90.60;;;;;;5015630;28;19909;-65
2021/10/10 05:30:14;;;;;;;;;;;3.50;90.50;;;;;;4997735;28;19921;-65
2021/10/10 05:32:39;;;;;;;;;;;3.60;90.30;;;;;;5003311;28;19913;-65
2021/10/10 05:35:05;;;;;;;;;;;3.60;90.00;;;;;;4994981;28;19917;-65
2021/10/10 05:37:30;;;;;;;;;;;3.60;90.10;;;;;;5000965;28;20058;-65
2021/10/10 05:39:56;;;;;;;;;;;3.70;90.00;;;;;;5008495;28;20027;-65
2021/10/10 05:42:21;;;;;;;;;;;3.80;89.80;;;;;;4998595;28;19917;-65
2021/10/10 05:44:47;;;;;;;;;;;3.80;89.70;;;;;;5009758;28;19909;-65
2021/10/10 05:47:12;;;;;;;;;;;3.80;89.40;;;;;;5004359;28;20308;-65
2021/10/10 05:49:38;;;;;;;;;;;3.80;89.30;;;;;;5008933;28;19913;-65
2021/10/10 05:52:05;;;;;;;;;;;3.80;89.60;;;;;;5006610;28;20308;-65
2021/10/10 05:54:32;;;;;;;;;;;3.80;89.40;;;;;;5001873;28;19925;-65
2021/10/10 05:57:01;;;;;;;;;;;3.90;89.30;;;;;;5006517;28;20405;-65
2021/10/10 05:59:30;;;;;;;;;;;4.00;89.20;;;;;;5011645;28;19909;-65
2021/10/10 06:01:56;;;;;;;;;;;3.90;89.10;;;;;;5006903;28;19964;-65
2021/10/10 06:04:21;;;;;;;;;;;4.00;89.20;;;;;;5009435;28;19906;-65
2021/10/10 06:06:46;;;;;;;;;;;4.00;89.10;;;;;;5004951;28;20031;-65
2021/10/10 06:09:12;;;;;;;;;;;4.00;89.30;;;;;;5001019;28;19919;-65
2021/10/10 06:11:37;;;;;;;;;;;4.00;89.40;;;;;;5002237;28;19928;-65
2021/10/10 06:14:03;;;;;;;;;;;4.00;89.20;;;;;;5009291;28;19956;-65
2021/10/10 06:16:29;;;;;;;;;;;4.00;89.20;;;;;;5007171;28;20340;-65
2021/10/10 06:18:55;;;;;;;;;;;4.10;89.10;;;;;;4999521;28;19910;-65
2021/10/10 06:21:21;;;;;;;;;;;4.10;89.10;;;;;;4999020;28;19967;-65
2021/10/10 06:23:46;;;;;;;;;;;4.20;89.10;;;;;;4996671;28;19917;-66
2021/10/10 06:26:12;;;;;;;;;;;4.20;88.70;;;;;;5004330;28;19905;-65
2021/10/10 06:28:37;;;;;;;;;;;4.30;88.40;;;;;;5006054;28;19940;-64
2021/10/10 06:31:03;;;;;;;;;;;4.40;88.10;;;;;;4992902;28;20332;-65
2021/10/10 06:33:28;;;;;;;;;;;4.50;87.90;;;;;;5007345;28;19905;-65
2021/10/10 06:35:54;;;;;;;;;;;4.60;87.80;;;;;;5009365;28;19914;-65
2021/10/10 06:38:19;;;;;;;;;;;4.60;87.70;;;;;;4997430;28;20060;-65
2021/10/10 06:40:46;;;;;;;;;;;4.60;87.60;;;;;;5004393;28;20398;-65
2021/10/10 06:43:12;;;;;;;;;;;4.70;87.30;;;;;;5005006;28;19933;-65
2021/10/10 06:45:37;;;;;;;;;;;4.80;87.10;;;;;;5002462;28;20431;-65
2021/10/10 06:48:03;;;;;;;;;;;4.80;86.50;;;;;;5005469;28;19913;-65
2021/10/10 06:50:29;;;;;;;;;;;4.90;86.60;;;;;;4996996;28;19917;-65
2021/10/10 06:52:54;;;;;;;;;;;5.00;86.60;;;;;;5012901;28;19948;-65
2021/10/10 06:55:20;;;;;;;;;;;5.10;86.50;;;;;;5002367;28;19959;-65
2021/10/10 06:57:45;;;;;;;;;;;5.10;86.20;;;;;;5005947;28;19916;-64
2021/10/10 07:00:11;;;;;;;;;;;5.10;86.10;;;;;;5000373;28;19920;-64
2021/10/10 07:02:41;;;;;;;;;;;5.20;85.90;;;;;;5003394;28;19921;-65
2021/10/10 07:05:07;;;;;;;;;;;5.20;85.90;;;;;;5002888;28;19925;-64
2021/10/10 07:07:33;;;;;;;;;;;5.30;85.70;;;;;;5001209;28;19924;-65
2021/10/10 07:09:58;;;;;;;;;;;5.30;85.60;;;;;;4999331;28;19945;-64
2021/10/10 07:12:23;;;;;;;;;;;5.40;85.00;;;;;;4997624;28;19914;-65
2021/10/10 07:14:50;;;;;;;;;;;5.40;84.80;;;;;;5001878;28;19913;-65
2021/10/10 07:17:16;;;;;;;;;;;5.50;84.60;;;;;;5007581;28;20396;-65
2021/10/10 07:19:58;;;;;;;;;;;5.50;84.20;;;;;;5004442;28;19910;-64
2021/10/10 07:22:29;;;;;;;;;;;5.60;84.70;;;;;;5002893;28;19909;-65
2021/10/10 07:25:00;;;;;;;;;;;5.70;84.90;;;;;;5003942;28;19959;-65
2021/10/10 07:27:26;;;;;;;;;;;5.70;84.50;;;;;;5004761;28;19914;-64
2021/10/10 07:29:51;;;;;;;;;;;5.90;84.00;;;;;;4992983;28;19913;-64
2021/10/10 07:32:17;;;;;;;;;;;5.90;83.90;;;;;;5005362;28;20388;-64
2021/10/10 07:34:43;;;;;;;;;;;6.00;84.10;;;;;;4997014;28;20364;-67
2021/10/10 07:37:08;;;;;;;;;;;6.10;83.40;;;;;;4989610;28;19921;-64
2021/10/10 07:39:34;;;;;;;;;;;6.10;83.30;;;;;;5006221;28;19913;-65
2021/10/10 07:41:59;;;;;;;;;;;6.20;83.40;;;;;;4999649;28;19912;-64
2021/10/10 07:44:29;;;;;;;;;;;6.30;82.90;;;;;;5002973;28;20380;-65
2021/10/10 07:47:06;;;;;;;;;;;6.50;83.10;;;;;;5000447;28;19910;-64
2021/10/10 07:49:32;;;;;;;;;;;6.60;82.40;;;;;;5000567;28;19913;-64
2021/10/10 07:51:57;;;;;;;;;;;6.70;82.10;;;;;;5005819;28;19917;-64
2021/10/10 07:54:23;;;;;;;;;;;6.80;81.90;;;;;;5004312;28;19957;-64
2021/10/10 07:56:48;;;;;;;;;;;6.90;81.30;;;;;;5005524;28;20456;-65
2021/10/10 07:59:14;;;;;;;;;;;7.10;81.30;;;;;;5002661;28;19916;-65
2021/10/10 08:01:39;;;;;;;;;;;7.30;80.80;;;;;;5004780;28;20032;-65
2021/10/10 08:04:05;;;;;;;;;;;7.50;79.40;;;;;;5001189;28;19909;-65
2021/10/10 08:06:30;;;;;;;;;;;7.70;79.80;;;;;;4995585;28;19916;-65
2021/10/10 08:08:56;;;;;;;;;;;7.90;78.90;;;;;;5000727;28;19916;-65
2021/10/10 08:11:21;;;;;;;;;;;8.10;79.40;;;;;;5006168;28;19940;-65
2021/10/10 08:13:47;;;;;;;;;;;8.20;77.50;;;;;;5001061;28;19913;-65
2021/10/10 08:16:12;;;;;;;;;;;8.60;78.10;;;;;;4998441;28;20399;-65
2021/10/10 08:18:37;;;;;;;;;;;8.80;75.10;;;;;;5002517;28;19956;-66
2021/10/10 08:21:03;;;;;;;;;;;8.90;75.00;;;;;;5001191;28;20093;-65
2021/10/10 08:23:29;;;;;;;;;;;9.10;75.80;;;;;;4996493;28;19913;-65
2021/10/10 08:25:54;;;;;;;;;;;9.10;75.10;;;;;;4989662;28;19960;-65
2021/10/10 08:28:20;;;;;;;;;;;9.00;74.80;;;;;;5000053;28;19914;-65
2021/10/10 08:30:49;;;;;;;;;;;8.90;74.20;;;;;;4998192;28;19914;-65
2021/10/10 08:33:14;;;;;;;;;;;9.10;75.60;;;;;;5009155;28;19996;-64
2021/10/10 08:35:40;;;;;;;;;;;9.40;74.30;;;;;;4999153;28;20005;-65
2021/10/10 08:38:05;;;;;;;;;;;9.20;73.90;;;;;;5005294;28;19975;-65
2021/10/10 08:40:31;;;;;;;;;;;9.30;73.70;;;;;;5005390;28;20000;-65
2021/10/10 08:42:57;;;;;;;;;;;9.40;73.50;;;;;;4999219;28;19909;-64
2021/10/10 08:45:25;;;;;;;;;;;9.10;72.30;;;;;;5002025;28;19916;-63
2021/10/10 08:47:51;;;;;;;;;;;9.40;73.60;;;;;;4996549;28;19971;-64
2021/10/10 08:50:17;;;;;;;;;;;9.50;73.40;;;;;;5005469;28;20343;-64
2021/10/10 08:52:43;;;;;;;;;;;9.80;71.80;;;;;;5006392;28;19909;-65
2021/10/10 08:55:09;;;;;;;;;;;10.00;70.10;;;;;;4995253;28;20001;-65
2021/10/10 08:57:35;;;;;;;;;;;10.00;69.40;;;;;;4997906;28;20440;-65
2021/10/10 09:00:05;;;;;;;;;;;10.20;69.30;;;;;;4988816;28;20003;-64
2021/10/10 09:02:32;;;;;;;;;;;10.10;69.10;;;;;;4991499;28;20369;-64
2021/10/10 09:04:58;;;;;;;;;;;10.60;68.40;;;;;;4990682;28;19914;-64
2021/10/10 09:07:24;;;;;;;;;;;10.60;68.40;;;;;;5004448;28;20328;-63
2021/10/10 09:09:50;;;;;;;;;;;10.80;65.60;;;;;;5003297;28;19909;-64
2021/10/10 09:12:15;;;;;;;;;;;10.80;68.80;;;;;;5001508;28;19917;-64
2021/10/10 09:14:41;;;;;;;;;;;10.80;66.60;;;;;;4997100;28;19909;-64
2021/10/10 09:17:15;;;;;;;;;;;11.00;66.20;;;;;;5001864;28;19918;-63
2021/10/10 09:19:51;;;;;;;;;;;11.10;65.30;;;;;;4999766;28;19910;-63
2021/10/10 09:22:17;;;;;;;;;;;11.10;65.20;;;;;;4996236;28;19999;-64
2021/10/10 09:24:43;;;;;;;;;;;11.00;65.90;;;;;;5012409;28;20381;-64
2021/10/10 09:27:13;;;;;;;;;;;11.20;66.80;;;;;;4994796;28;19913;-63
2021/10/10 09:29:40;;;;;;;;;;;11.20;66.10;;;;;;4994269;28;19913;-64
2021/10/10 09:32:10;;;;;;;;;;;11.40;65.30;;;;;;4993238;28;19928;-64
2021/10/10 09:34:37;;;;;;;;;;;11.30;64.90;;;;;;4991821;28;19957;-64
2021/10/10 09:37:07;;;;;;;;;;;11.40;65.40;;;;;;4993848;28;20119;-65
2021/10/10 09:39:37;;;;;;;;;;;11.20;64.40;;;;;;4997623;28;19929;-64
2021/10/10 09:42:03;;;;;;;;;;;11.40;67.10;;;;;;5000825;28;19980;-63
2021/10/10 09:44:40;;;;;;;;;;;11.20;66.70;;;;;;4990814;28;20399;-64
2021/10/10 09:47:05;;;;;;;;;;;11.10;65.80;;;;;;5000501;28;20404;-64
2021/10/10 09:49:32;;;;;;;;;;;10.90;66.00;;;;;;5003580;28;19913;-64
2021/10/10 09:52:07;;;;;;;;;;;11.20;67.10;;;;;;4993990;28;19937;-63
2021/10/10 09:54:46;;;;;;;;;;;11.30;66.40;;;;;;5005517;28;20187;-64
2021/10/10 09:57:11;;;;;;;;;;;11.50;67.50;;;;;;4997530;28;20095;-63
2021/10/10 09:59:37;;;;;;;;;;;11.40;66.90;;;;;;5004740;28;20372;-64
2021/10/10 10:02:03;;;;;;;;;;;11.10;65.70;;;;;;5000442;28;19920;-64
2021/10/10 10:04:39;;;;;;;;;;;11.10;66.60;;;;;;4997239;28;19906;-64
2021/10/10 10:07:05;;;;;;;;;;;11.20;66.30;;;;;;4995838;28;20295;-64
2021/10/10 10:09:31;;;;;;;;;;;11.50;67.90;;;;;;5001656;28;19992;-63
2021/10/10 10:11:57;;;;;;;;;;;11.50;66.30;;;;;;4984112;28;19963;-65
2021/10/10 10:14:24;;;;;;;;;;;11.40;66.70;;;;;;5004686;28;19916;-64
2021/10/10 10:16:49;;;;;;;;;;;11.40;66.80;;;;;;5009258;28;20402;-63
2021/10/10 10:19:22;;;;;;;;;;;11.40;66.80;;;;;;5008589;28;19948;-64
2021/10/10 10:21:54;;;;;;;;;;;11.60;66.90;;;;;;4998057;28;19918;-65
2021/10/10 10:24:20;;;;;;;;;;;11.80;66.30;;;;;;5006771;28;19999;-65
2021/10/10 10:26:46;;;;;;;;;;;12.00;66.60;;;;;;5000832;28;20126;-65
2021/10/10 10:29:19;;;;;;;;;;;12.20;65.80;;;;;;4992142;28;20150;-64
2021/10/10 10:31:45;;;;;;;;;;;12.20;66.00;;;;;;4998071;28;20428;-63
2021/10/10 10:34:20;;;;;;;;;;;12.20;64.60;;;;;;4997861;28;19909;-64
2021/10/10 10:36:49;;;;;;;;;;;12.30;66.40;;;;;;5003797;28;20221;-65
2021/10/10 10:39:38;;;;;;;;;;;12.40;65.40;;;;;;5007617;28;19913;-64
2021/10/10 10:42:05;;;;;;;;;;;12.50;64.00;;;;;;4996711;28;20019;-64
2021/10/10 10:44:34;;;;;;;;;;;12.80;64.10;;;;;;5006044;28;19909;-63
2021/10/10 10:47:00;;;;;;;;;;;12.60;63.00;;;;;;5005462;28;19979;-63
2021/10/10 10:49:43;;;;;;;;;;;12.90;63.00;;;;;;5005899;28;19905;-63
2021/10/10 10:52:28;;;;;;;;;;;13.00;63.40;;;;;;4995286;28;19914;-64
2021/10/10 10:54:55;;;;;;;;;;;13.80;60.90;;;;;;4996229;28;19913;-63
2021/10/10 10:57:27;;;;;;;;;;;14.30;59.00;;;;;;5002871;28;19961;-64
2021/10/10 11:00:00;;;;;;;;;;;14.50;59.00;;;;;;5000763;28;20316;-64
2021/10/10 11:02:44;;;;;;;;;;;14.50;56.70;;;;;;5005691;28;19910;-64
2021/10/10 11:05:09;;;;;;;;;;;14.70;55.90;;;;;;5008761;28;19913;-64
2021/10/10 11:07:35;;;;;;;;;;;14.80;56.90;;;;;;5001818;28;19971;-64
2021/10/10 11:10:09;;;;;;;;;;;14.80;55.90;;;;;;5006212;28;19910;-63
2021/10/10 11:12:35;;;;;;;;;;;15.00;54.00;;;;;;5005943;28;20583;-64
2021/10/10 11:15:10;;;;;;;;;;;14.90;52.70;;;;;;4998606;28;19913;-63
2021/10/10 11:17:38;;;;;;;;;;;14.40;52.40;;;;;;4995491;28;20293;-64
2021/10/10 11:20:03;;;;;;;;;;;14.30;55.80;;;;;;5003732;28;19913;-64
2021/10/10 11:22:29;;;;;;;;;;;14.10;55.50;;;;;;5001154;28;19964;-63
2021/10/10 11:24:54;;;;;;;;;;;14.20;56.30;;;;;;5008080;28;19949;-64
2021/10/10 11:27:22;;;;;;;;;;;14.00;56.10;;;;;;4987017;28;19913;-65
2021/10/10 11:29:50;;;;;;;;;;;14.40;56.10;;;;;;5006438;28;19913;-64
2021/10/10 11:32:16;;;;;;;;;;;14.20;54.50;;;;;;5003813;28;19917;-64
2021/10/10 11:34:41;;;;;;;;;;;14.20;55.70;;;;;;5002763;28;20000;-64
2021/10/10 11:37:13;;;;;;;;;;;14.00;56.10;;;;;;5001294;28;19917;-63
2021/10/10 11:39:39;;;;;;;;;;;13.90;55.50;;;;;;5007081;28;19913;-64
2021/10/10 11:42:05;;;;;;;;;;;13.70;57.10;;;;;;5008101;28;19909;-63
2021/10/10 11:44:35;;;;;;;;;;;14.00;57.70;;;;;;4999982;28;20003;-64
2021/10/10 11:47:02;;;;;;;;;;;14.10;55.40;;;;;;5004862;28;19914;-64
2021/10/10 11:49:30;;;;;;;;;;;14.10;57.20;;;;;;5007582;28;19936;-64
2021/10/10 11:52:03;;;;;;;;;;;14.20;56.50;;;;;;4999665;28;19913;-64
2021/10/10 11:54:40;;;;;;;;;;;14.10;56.70;;;;;;5007746;28;19909;-64
2021/10/10 11:57:09;;;;;;;;;;;14.00;58.20;;;;;;5000191;28;19909;-62
2021/10/10 11:59:35;;;;;;;;;;;14.30;57.50;;;;;;5007591;28;19920;-64
2021/10/10 12:02:01;;;;;;;;;;;14.80;58.10;;;;;;4995610;28;19917;-64
2021/10/10 12:04:26;;;;;;;;;;;15.00;56.10;;;;;;5005199;28;19909;-64
2021/10/10 12:06:52;;;;;;;;;;;15.20;54.90;;;;;;5003540;28;19909;-63
2021/10/10 12:09:18;;;;;;;;;;;15.10;54.60;;;;;;4998584;28;20076;-64
2021/10/10 12:12:02;;;;;;;;;;;15.00;53.90;;;;;;5001684;28;19916;-64
2021/10/10 12:14:46;;;;;;;;;;;15.10;55.00;;;;;;4995730;28;20247;-63
2021/10/10 12:17:30;;;;;;;;;;;15.60;53.20;;;;;;4997860;28;19910;-65
2021/10/10 12:19:57;;;;;;;;;;;15.40;51.60;;;;;;4992262;28;19917;-64
2021/10/10 12:22:23;;;;;;;;;;;15.70;54.00;;;;;;5003469;28;19943;-64
2021/10/10 12:24:48;;;;;;;;;;;16.30;52.60;;;;;;4990208;28;19957;-64
2021/10/10 12:27:23;;;;;;;;;;;15.80;49.60;;;;;;4995788;28;20356;-65
2021/10/10 12:29:49;;;;;;;;;;;15.80;50.50;;;;;;4995282;28;19909;-64
2021/10/10 12:32:20;;;;;;;;;;;16.30;51.00;;;;;;4993866;28;19924;-64
2021/10/10 12:34:46;;;;;;;;;;;16.70;49.90;;;;;;4998255;28;19909;-64
2021/10/10 12:37:18;;;;;;;;;;;17.70;49.40;;;;;;5003810;28;20113;-64
2021/10/10 12:39:44;;;;;;;;;;;17.80;47.50;;;;;;4983113;28;19959;-64
2021/10/10 12:42:10;;;;;;;;;;;17.50;48.10;;;;;;5004365;28;19968;-65
2021/10/10 12:44:35;;;;;;;;;;;17.60;48.50;;;;;;4992944;28;20314;-64
2021/10/10 12:47:01;;;;;;;;;;;17.30;46.20;;;;;;4995485;28;19917;-64
2021/10/10 12:49:36;;;;;;;;;;;17.90;46.00;;;;;;5004283;28;20284;-64
2021/10/10 12:52:03;;;;;;;;;;;18.50;45.40;;;;;;5002458;28;19917;-65
2021/10/10 12:54:29;;;;;;;;;;;18.50;44.50;;;;;;4998848;28;19949;-65
2021/10/10 12:57:05;;;;;;;;;;;18.70;44.60;;;;;;5002082;28;21318;-65
2021/10/10 12:59:31;;;;;;;;;;;18.80;43.40;;;;;;5002280;28;20156;-65
2021/10/10 13:01:57;;;;;;;;;;;19.30;42.00;;;;;;5003733;28;20304;-65
2021/10/10 13:04:22;;;;;;;;;;;18.60;44.00;;;;;;5005258;28;19913;-65
2021/10/10 13:06:49;;;;;;;;;;;18.00;43.20;;;;;;5008589;28;19913;-64
2021/10/10 13:09:15;;;;;;;;;;;17.60;44.60;;;;;;5003124;28;19910;-64
2021/10/10 13:11:41;;;;;;;;;;;18.30;44.90;;;;;;5004043;28;19955;-65
2021/10/10 13:14:07;;;;;;;;;;;18.50;43.30;;;;;;4996266;28;19923;-65
2021/10/10 13:16:32;;;;;;;;;;;18.90;44.50;;;;;;4996800;28;19910;-65
2021/10/10 13:18:58;;;;;;;;;;;18.80;43.60;;;;;;5002752;28;19909;-65
2021/10/10 13:21:23;;;;;;;;;;;18.60;44.10;;;;;;5000507;28;19909;-64
2021/10/10 13:23:49;;;;;;;;;;;18.40;45.30;;;;;;5002976;28;20032;-64
2021/10/10 13:26:15;;;;;;;;;;;19.00;43.40;;;;;;4999485;28;19909;-65
2021/10/10 13:28:40;;;;;;;;;;;18.60;42.50;;;;;;4980911;28;19910;-65
2021/10/10 13:31:06;;;;;;;;;;;18.70;43.40;;;;;;5001102;28;19932;-64
2021/10/10 13:33:33;;;;;;;;;;;19.10;42.00;;;;;;4996157;28;20423;-65
2021/10/10 13:35:59;;;;;;;;;;;19.30;41.40;;;;;;4999397;28;19955;-64
2021/10/10 13:38:25;;;;;;;;;;;19.70;41.40;;;;;;4999884;28;19913;-65
2021/10/10 13:40:51;;;;;;;;;;;19.00;41.70;;;;;;5000577;28;19931;-65
2021/10/10 13:43:17;;;;;;;;;;;19.30;43.00;;;;;;5004418;28;20360;-65
2021/10/10 13:45:42;;;;;;;;;;;19.10;42.00;;;;;;5002754;28;19956;-64
2021/10/10 13:48:08;;;;;;;;;;;19.90;43.00;;;;;;5002295;28;19913;-65
2021/10/10 13:50:34;;;;;;;;;;;19.90;42.00;;;;;;5004299;28;19964;-65
2021/10/10 13:53:00;;;;;;;;;;;19.90;41.60;;;;;;5003715;28;19909;-65
2021/10/10 13:55:26;;;;;;;;;;;20.00;42.20;;;;;;5004705;28;19967;-65
2021/10/10 13:57:51;;;;;;;;;;;20.10;41.40;;;;;;5010020;28;19910;-65
2021/10/10 14:00:17;;;;;;;;;;;20.00;41.60;;;;;;5003084;28;19913;-65
2021/10/10 14:02:42;;;;;;;;;;;19.50;42.80;;;;;;5007748;28;19917;-65
2021/10/10 14:05:08;;;;;;;;;;;20.00;42.30;;;;;;5008021;28;19960;-65
2021/10/10 14:07:36;;;;;;;;;;;20.20;42.30;;;;;;5006139;28;19999;-65
2021/10/10 14:10:05;;;;;;;;;;;19.90;41.60;;;;;;5003219;28;19917;-65
2021/10/10 14:12:31;;;;;;;;;;;20.00;42.60;;;;;;5007400;28;19967;-65
2021/10/10 14:14:59;;;;;;;;;;;20.50;41.60;;;;;;5008190;28;19917;-65
2021/10/10 14:17:25;;;;;;;;;;;20.20;41.00;;;;;;5007245;28;20396;-64
2021/10/10 14:19:50;;;;;;;;;;;20.10;41.80;;;;;;5009025;28;19947;-65
2021/10/10 14:22:17;;;;;;;;;;;20.30;42.40;;;;;;5003621;28;19909;-65
2021/10/10 14:24:43;;;;;;;;;;;19.60;43.10;;;;;;5001320;28;20286;-64